createdAt,value
2017-01-29T00:00:25.701Z,1008.26
2017-01-29T00:01:36.065Z,1008.2
2017-01-29T00:02:46.828Z,1008.2
2017-01-29T00:03:56.398Z,1008.24
2017-01-29T00:05:06.823Z,1008.2
2017-01-29T00:06:17.169Z,1008.22
2017-01-29T00:07:27.533Z,1008.23
2017-01-29T00:08:38.329Z,1008.25
2017-01-29T00:09:49.088Z,1008.23
2017-01-29T00:10:59.865Z,1008.24
2017-01-29T00:12:10.628Z,1008.25
2017-01-29T00:13:21.017Z,1008.25
2017-01-29T00:14:31.346Z,1008.19
2017-01-29T00:15:42.110Z,1008.25
2017-01-29T00:16:52.460Z,1008.25
2017-01-29T00:18:02.813Z,1008.25
2017-01-29T00:19:13.168Z,1008.29
2017-01-29T00:20:23.127Z,1008.28
2017-01-29T00:21:33.874Z,1008.29
2017-01-29T00:22:44.246Z,1008.28
2017-01-29T00:23:54.650Z,1008.26
2017-01-29T00:25:05.417Z,1008.23
2017-01-29T00:26:15.786Z,1008.28
2017-01-29T00:27:26.184Z,1008.28
2017-01-29T00:28:36.941Z,1008.25
2017-01-29T00:29:47.716Z,1008.26
2017-01-29T00:30:58.078Z,1008.22
2017-01-29T00:32:08.435Z,1008.2
2017-01-29T00:33:18.413Z,1008.2
2017-01-29T00:34:29.182Z,1008.26
2017-01-29T00:35:38.762Z,1008.24
2017-01-29T00:36:48.723Z,1008.22
2017-01-29T00:37:59.496Z,1008.2
2017-01-29T00:39:09.459Z,1008.23
2017-01-29T00:40:19.818Z,1008.23
2017-01-29T00:41:29.797Z,1008.22
2017-01-29T00:42:40.589Z,1008.22
2017-01-29T00:43:51.347Z,1008.22
2017-01-29T00:45:01.720Z,1008.22
2017-01-29T00:46:12.092Z,1008.23
2017-01-29T00:47:22.473Z,1008.19
2017-01-29T00:48:33.091Z,1008.16
2017-01-29T00:49:43.441Z,1008.17
2017-01-29T00:50:53.807Z,1008.19
2017-01-29T00:52:04.186Z,1008.16
2017-01-29T00:53:14.543Z,1008.16
2017-01-29T00:54:24.919Z,1008.15
2017-01-29T00:55:35.285Z,1008.18
2017-01-29T00:56:45.655Z,1008.16
2017-01-29T00:57:56.387Z,1008.14
2017-01-29T00:59:07.149Z,1008.14
2017-01-29T01:00:17.499Z,1008.11
2017-01-29T01:01:27.497Z,1008.1
2017-01-29T01:02:38.270Z,1008.1
2017-01-29T01:03:49.026Z,1008.13
2017-01-29T01:04:59.375Z,1008.09
2017-01-29T01:06:10.139Z,1008.09
2017-01-29T01:07:20.892Z,1008.08
2017-01-29T01:08:30.864Z,1008.14
2017-01-29T01:09:41.243Z,1008.11
2017-01-29T01:10:51.590Z,1008.12
2017-01-29T01:12:02.335Z,1008.12
2017-01-29T01:13:12.674Z,1008.13
2017-01-29T01:14:23.017Z,1008.15
2017-01-29T01:15:33.756Z,1008.16
2017-01-29T01:16:44.522Z,1008.16
2017-01-29T01:17:54.919Z,1008.15
2017-01-29T01:19:05.698Z,1008.16
2017-01-29T01:20:16.425Z,1008.19
2017-01-29T01:21:27.155Z,1008.16
2017-01-29T01:22:37.895Z,1008.21
2017-01-29T01:23:47.863Z,1008.25
2017-01-29T01:24:57.809Z,1008.25
2017-01-29T01:26:08.159Z,1008.2
2017-01-29T01:27:18.521Z,1008.26
2017-01-29T01:28:29.284Z,1008.22
2017-01-29T01:29:40.025Z,1008.22
2017-01-29T01:30:50.371Z,1008.24
2017-01-29T01:32:00.750Z,1008.23
2017-01-29T01:33:11.492Z,1008.28
2017-01-29T01:34:21.864Z,1008.26
2017-01-29T01:35:32.617Z,1008.27
2017-01-29T01:36:43.370Z,1008.25
2017-01-29T01:37:54.116Z,1008.28
2017-01-29T01:39:04.471Z,1008.26
2017-01-29T01:40:14.833Z,1008.26
2017-01-29T01:41:25.192Z,1008.25
2017-01-29T01:42:34.759Z,1008.26
2017-01-29T01:43:45.511Z,1008.26
2017-01-29T01:44:56.262Z,1008.3
2017-01-29T01:46:07.044Z,1008.23
2017-01-29T01:47:17.796Z,1008.24
2017-01-29T01:48:28.155Z,1008.25
2017-01-29T01:49:38.495Z,1008.25
2017-01-29T01:50:48.456Z,1008.25
2017-01-29T01:51:59.193Z,1008.28
2017-01-29T01:53:09.935Z,1008.28
2017-01-29T01:54:20.284Z,1008.28
2017-01-29T01:55:31.024Z,1008.26
2017-01-29T01:56:41.376Z,1008.28
2017-01-29T01:57:52.131Z,1008.26
2017-01-29T01:59:02.872Z,1008.26
2017-01-29T02:00:13.222Z,1008.28
2017-01-29T02:01:23.582Z,1008.27
2017-01-29T02:02:33.995Z,1008.28
2017-01-29T02:03:44.369Z,1008.28
2017-01-29T02:04:55.130Z,1008.3
2017-01-29T02:06:05.883Z,1008.27
2017-01-29T02:07:16.617Z,1008.26
2017-01-29T02:08:27.362Z,1008.27
2017-01-29T02:09:37.719Z,1008.29
2017-01-29T02:10:47.663Z,1008.3
2017-01-29T02:11:58.021Z,1008.27
2017-01-29T02:13:08.366Z,1008.29
2017-01-29T02:14:19.113Z,1008.31
2017-01-29T02:15:29.481Z,1008.28
2017-01-29T02:16:40.245Z,1008.29
2017-01-29T02:17:50.211Z,1008.33
2017-01-29T02:19:00.181Z,1008.34
2017-01-29T02:20:10.535Z,1008.3
2017-01-29T02:21:20.490Z,1008.34
2017-01-29T02:22:31.249Z,1008.31
2017-01-29T02:23:41.658Z,1008.31
2017-01-29T02:24:52.019Z,1008.34
2017-01-29T02:26:02.790Z,1008.3
2017-01-29T02:27:13.152Z,1008.34
2017-01-29T02:28:23.506Z,1008.31
2017-01-29T02:29:34.255Z,1008.3
2017-01-29T02:30:44.985Z,1008.32
2017-01-29T02:31:54.963Z,1008.37
2017-01-29T02:33:05.325Z,1008.32
2017-01-29T02:34:15.677Z,1008.32
2017-01-29T02:35:26.425Z,1008.39
2017-01-29T02:36:36.006Z,1008.37
2017-01-29T02:37:46.748Z,1008.39
2017-01-29T02:38:57.501Z,1008.4
2017-01-29T02:40:07.476Z,1008.37
2017-01-29T02:41:18.204Z,1008.39
2017-01-29T02:42:28.958Z,1008.38
2017-01-29T02:43:39.306Z,1008.38
2017-01-29T02:44:50.048Z,1008.43
2017-01-29T02:46:00.386Z,1008.45
2017-01-29T02:47:10.373Z,1008.46
2017-01-29T02:48:21.108Z,1008.44
2017-01-29T02:49:31.467Z,1008.47
2017-01-29T02:50:42.217Z,1008.5
2017-01-29T02:51:52.569Z,1008.45
2017-01-29T02:53:03.338Z,1008.46
2017-01-29T02:54:13.678Z,1008.49
2017-01-29T02:55:24.086Z,1008.5
2017-01-29T02:56:34.428Z,1008.49
2017-01-29T02:57:44.791Z,1008.48
2017-01-29T02:58:55.537Z,1008.48
2017-01-29T03:00:06.285Z,1008.48
2017-01-29T03:01:17.036Z,1008.5
2017-01-29T03:33:11.045Z,1008.63
2017-01-29T03:34:21.771Z,1008.7
2017-01-29T03:35:32.113Z,1008.66
2017-01-29T03:36:42.842Z,1008.63
2017-01-29T03:37:53.579Z,1008.66
2017-01-29T03:39:04.322Z,1008.64
2017-01-29T03:40:15.055Z,1008.66
2017-01-29T03:41:25.412Z,1008.61
2017-01-29T03:42:36.156Z,1008.67
2017-01-29T03:43:46.908Z,1008.69
2017-01-29T03:44:57.285Z,1008.65
2017-01-29T03:46:08.056Z,1008.68
2017-01-29T03:47:18.006Z,1008.7
2017-01-29T03:48:28.756Z,1008.73
2017-01-29T03:49:38.717Z,1008.69
2017-01-29T03:50:49.062Z,1008.66
2017-01-29T03:51:59.019Z,1008.66
2017-01-29T03:53:08.975Z,1008.66
2017-01-29T03:54:19.716Z,1008.62
2017-01-29T03:55:30.477Z,1008.64
2017-01-29T03:56:41.216Z,1008.64
2017-01-29T03:57:51.963Z,1008.6
2017-01-29T03:59:02.714Z,1008.64
2017-01-29T04:00:13.444Z,1008.62
2017-01-29T04:01:23.795Z,1008.64
2017-01-29T04:02:34.549Z,1008.65
2017-01-29T04:03:45.295Z,1008.63
2017-01-29T04:04:56.056Z,1008.62
2017-01-29T04:06:06.835Z,1008.64
2017-01-29T04:07:17.584Z,1008.63
2017-01-29T04:08:28.356Z,1008.67
2017-01-29T04:09:39.099Z,1008.67
2017-01-29T04:10:49.867Z,1008.65
2017-01-29T04:12:00.613Z,1008.71
2017-01-29T04:13:11.363Z,1008.75
2017-01-29T04:14:22.151Z,1008.76
2017-01-29T04:15:32.525Z,1008.78
2017-01-29T04:16:43.278Z,1008.79
2017-01-29T04:17:53.238Z,1008.79
2017-01-29T04:19:03.197Z,1008.8
2017-01-29T04:20:13.934Z,1008.85
2017-01-29T04:21:24.279Z,1008.83
2017-01-29T04:22:35.061Z,1008.82
2017-01-29T04:23:45.442Z,1008.85
2017-01-29T04:24:56.203Z,1008.82
2017-01-29T04:26:06.173Z,1008.83
2017-01-29T04:27:16.122Z,1008.82
2017-01-29T04:28:26.862Z,1008.79
2017-01-29T04:29:37.595Z,1008.81
2017-01-29T04:30:48.331Z,1008.8
2017-01-29T04:31:59.077Z,1008.81
2017-01-29T04:33:09.050Z,1008.76
2017-01-29T04:34:19.394Z,1008.76
2017-01-29T04:35:30.162Z,1008.81
2017-01-29T04:36:40.915Z,1008.79
2017-01-29T04:37:51.665Z,1008.8
2017-01-29T04:39:02.019Z,1008.82
2017-01-29T04:40:12.395Z,1008.81
2017-01-29T04:41:23.147Z,1008.82
2017-01-29T04:42:33.519Z,1008.84
2017-01-29T04:43:43.863Z,1008.82
2017-01-29T04:44:54.602Z,1008.83
2017-01-29T04:46:05.350Z,1008.8
2017-01-29T04:47:15.695Z,1008.83
2017-01-29T04:48:26.466Z,1008.82
2017-01-29T04:49:37.213Z,1008.84
2017-01-29T04:50:47.571Z,1008.84
2017-01-29T04:51:57.518Z,1008.85
2017-01-29T04:53:07.868Z,1008.87
2017-01-29T04:54:18.612Z,1008.91
2017-01-29T04:55:29.363Z,1008.93
2017-01-29T04:56:39.708Z,1008.97
2017-01-29T04:57:50.454Z,1008.95
2017-01-29T04:59:00.863Z,1008.94
2017-01-29T05:00:11.225Z,1008.98
2017-01-29T05:01:21.981Z,1008.94
2017-01-29T05:02:32.738Z,1008.93
2017-01-29T05:03:43.511Z,1008.97
2017-01-29T05:04:53.073Z,1009
2017-01-29T05:06:03.050Z,1009.03
2017-01-29T05:07:13.395Z,1009.03
2017-01-29T05:08:23.743Z,1009.04
2017-01-29T05:09:34.483Z,1009.05
2017-01-29T05:10:44.446Z,1009.05
2017-01-29T05:11:54.800Z,1009.07
2017-01-29T05:13:05.542Z,1009.08
2017-01-29T05:14:16.294Z,1009.07
2017-01-29T05:15:27.037Z,1009.06
2017-01-29T05:16:37.405Z,1009.06
2017-01-29T05:17:48.158Z,1009.07
2017-01-29T05:18:58.118Z,1009.08
2017-01-29T05:20:08.102Z,1009.07
2017-01-29T05:21:18.846Z,1009.04
2017-01-29T05:22:28.816Z,1009.06
2017-01-29T05:23:39.575Z,1009.09
2017-01-29T05:24:50.331Z,1009.08
2017-01-29T05:26:00.675Z,1009.11
2017-01-29T05:27:11.045Z,1009.12
2017-01-29T05:28:21.240Z,1009.09
2017-01-29T05:29:31.985Z,1009.13
2017-01-29T05:30:42.345Z,1009.12
2017-01-29T05:31:52.679Z,1009.15
2017-01-29T05:33:02.635Z,1009.18
2017-01-29T05:34:13.380Z,1009.2
2017-01-29T05:35:24.132Z,1009.22
2017-01-29T05:36:34.891Z,1009.22
2017-01-29T05:37:45.651Z,1009.23
2017-01-29T05:38:56.404Z,1009.24
2017-01-29T05:40:06.755Z,1009.25
2017-01-29T05:41:17.097Z,1009.26
2017-01-29T05:42:27.064Z,1009.28
2017-01-29T05:43:37.825Z,1009.3
2017-01-29T05:44:48.568Z,1009.31
2017-01-29T05:45:58.918Z,1009.33
2017-01-29T05:47:08.481Z,1009.34
2017-01-29T05:48:19.245Z,1009.37
2017-01-29T05:49:29.995Z,1009.39
2017-01-29T05:50:40.364Z,1009.41
2017-01-29T05:51:51.129Z,1009.39
2017-01-29T05:53:01.481Z,1009.36
2017-01-29T05:54:12.276Z,1009.38
2017-01-29T05:55:23.023Z,1009.38
2017-01-29T05:56:33.377Z,1009.4
2017-01-29T05:57:43.732Z,1009.41
2017-01-29T05:58:54.104Z,1009.35
2017-01-29T06:00:04.448Z,1009.36
2017-01-29T06:01:14.804Z,1009.37
2017-01-29T06:02:25.155Z,1009.37
2017-01-29T06:03:35.509Z,1009.39
2017-01-29T06:04:46.248Z,1009.39
2017-01-29T06:05:57.004Z,1009.36
2017-01-29T06:07:07.366Z,1009.37
2017-01-29T06:08:17.720Z,1009.35
2017-01-29T06:09:28.461Z,1009.4
2017-01-29T06:10:38.835Z,1009.37
2017-01-29T06:11:49.571Z,1009.43
2017-01-29T06:12:59.534Z,1009.42
2017-01-29T06:14:09.882Z,1009.39
2017-01-29T06:15:20.230Z,1009.41
2017-01-29T06:16:30.588Z,1009.42
2017-01-29T06:17:41.331Z,1009.37
2017-01-29T06:18:50.882Z,1009.39
2017-01-29T06:20:01.233Z,1009.41
2017-01-29T06:21:11.581Z,1009.42
2017-01-29T06:22:22.330Z,1009.39
2017-01-29T06:23:32.678Z,1009.43
2017-01-29T06:24:43.438Z,1009.44
2017-01-29T06:25:53.795Z,1009.42
2017-01-29T06:27:04.159Z,1009.39
2017-01-29T06:28:14.526Z,1009.36
2017-01-29T06:29:24.881Z,1009.4
2017-01-29T06:30:35.623Z,1009.36
2017-01-29T06:31:45.964Z,1009.35
2017-01-29T06:32:55.919Z,1009.39
2017-01-29T06:34:06.668Z,1009.38
2017-01-29T06:35:16.636Z,1009.45
2017-01-29T06:36:27.383Z,1009.46
2017-01-29T06:37:38.126Z,1009.47
2017-01-29T06:38:48.861Z,1009.49
2017-01-29T06:39:59.241Z,1009.53
2017-01-29T06:41:09.599Z,1009.52
2017-01-29T06:42:19.593Z,1009.57
2017-01-29T06:43:30.358Z,1009.57
2017-01-29T06:44:41.130Z,1009.6
2017-01-29T06:45:51.872Z,1009.53
2017-01-29T06:47:02.226Z,1009.59
2017-01-29T06:48:12.580Z,1009.56
2017-01-29T06:49:22.973Z,1009.54
2017-01-29T06:50:33.724Z,1009.57
2017-01-29T06:51:44.069Z,1009.6
2017-01-29T06:52:54.886Z,1009.58
2017-01-29T06:54:04.863Z,1009.56
2017-01-29T06:55:15.604Z,1009.62
2017-01-29T06:56:26.347Z,1009.54
2017-01-29T06:57:36.689Z,1009.56
2017-01-29T06:58:46.633Z,1009.54
2017-01-29T06:59:57.379Z,1009.55
2017-01-29T07:01:07.731Z,1009.6
2017-01-29T07:02:18.076Z,1009.59
2017-01-29T07:03:28.825Z,1009.6
2017-01-29T07:04:39.179Z,1009.59
2017-01-29T07:05:49.933Z,1009.59
2017-01-29T07:06:59.889Z,1009.6
2017-01-29T07:08:10.239Z,1009.59
2017-01-29T07:09:20.982Z,1009.57
2017-01-29T07:10:31.729Z,1009.55
2017-01-29T07:11:42.076Z,1009.51
2017-01-29T07:12:52.814Z,1009.51
2017-01-29T07:14:02.790Z,1009.5
2017-01-29T07:15:13.540Z,1009.5
2017-01-29T07:16:23.493Z,1009.51
2017-01-29T07:17:33.446Z,1009.5
2017-01-29T07:18:44.182Z,1009.56
2017-01-29T07:19:54.537Z,1009.54
2017-01-29T07:21:04.903Z,1009.56
2017-01-29T07:22:15.720Z,1009.53
2017-01-29T07:23:25.664Z,1009.57
2017-01-29T07:24:36.023Z,1009.53
2017-01-29T07:25:46.380Z,1009.56
2017-01-29T07:26:57.169Z,1009.61
2017-01-29T07:28:07.909Z,1009.59
2017-01-29T07:29:18.260Z,1009.64
2017-01-29T07:30:28.212Z,1009.65
2017-01-29T07:31:38.555Z,1009.62
2017-01-29T07:32:48.929Z,1009.66
2017-01-29T07:33:59.722Z,1009.65
2017-01-29T07:35:10.469Z,1009.68
2017-01-29T07:36:21.256Z,1009.67
2017-01-29T07:37:30.815Z,1009.69
2017-01-29T07:38:41.553Z,1009.67
2017-01-29T07:39:51.901Z,1009.64
2017-01-29T07:41:02.256Z,1009.62
2017-01-29T07:42:12.633Z,1009.63
2017-01-29T07:43:22.983Z,1009.62
2017-01-29T07:44:33.753Z,1009.58
2017-01-29T07:45:43.325Z,1009.61
2017-01-29T07:46:54.066Z,1009.64
2017-01-29T07:48:03.251Z,1009.67
2017-01-29T07:49:13.634Z,1009.66
2017-01-29T07:50:23.581Z,1009.66
2017-01-29T07:51:34.331Z,1009.7
2017-01-29T07:52:44.680Z,1009.64
2017-01-29T07:53:55.426Z,1009.67
2017-01-29T07:55:06.176Z,1009.67
2017-01-29T07:56:16.546Z,1009.72
2017-01-29T07:57:27.289Z,1009.66
2017-01-29T07:58:38.048Z,1009.68
2017-01-29T07:59:48.408Z,1009.65
2017-01-29T08:00:58.759Z,1009.59
2017-01-29T08:02:08.738Z,1009.6
2017-01-29T08:03:18.280Z,1009.6
2017-01-29T08:04:28.281Z,1009.61
2017-01-29T08:05:38.652Z,1009.6
2017-01-29T08:06:49.400Z,1009.61
2017-01-29T08:07:59.380Z,1009.63
2017-01-29T08:09:10.123Z,1009.59
2017-01-29T08:10:20.473Z,1009.61
2017-01-29T08:11:31.241Z,1009.62
2017-01-29T08:12:41.608Z,1009.59
2017-01-29T08:13:51.563Z,1009.59
2017-01-29T08:15:01.911Z,1009.59
2017-01-29T08:16:12.661Z,1009.56
2017-01-29T08:17:23.405Z,1009.57
2017-01-29T08:18:34.140Z,1009.58
2017-01-29T08:19:44.484Z,1009.57
2017-01-29T08:20:54.823Z,1009.58
2017-01-29T08:22:05.563Z,1009.52
2017-01-29T08:23:16.319Z,1009.56
2017-01-29T08:24:27.076Z,1009.56
2017-01-29T08:25:37.423Z,1009.59
2017-01-29T08:26:47.777Z,1009.59
2017-01-29T08:27:57.729Z,1009.56
2017-01-29T08:29:08.472Z,1009.56
2017-01-29T08:30:18.841Z,1009.58
2017-01-29T08:31:29.591Z,1009.56
2017-01-29T08:32:39.952Z,1009.53
2017-01-29T08:33:50.323Z,1009.55
2017-01-29T08:35:01.103Z,1009.54
2017-01-29T08:36:11.069Z,1009.6
2017-01-29T08:37:21.423Z,1009.6
2017-01-29T08:38:31.380Z,1009.61
2017-01-29T08:39:41.732Z,1009.58
2017-01-29T08:40:52.104Z,1009.58
2017-01-29T08:42:02.484Z,1009.64
2017-01-29T08:43:13.471Z,1009.62
2017-01-29T08:44:23.819Z,1009.64
2017-01-29T08:45:33.826Z,1009.64
2017-01-29T08:46:44.571Z,1009.6
2017-01-29T08:47:54.918Z,1009.59
2017-01-29T08:49:05.284Z,1009.58
2017-01-29T08:50:15.218Z,1009.55
2017-01-29T08:51:25.566Z,1009.57
2017-01-29T08:52:35.928Z,1009.57
2017-01-29T08:53:46.283Z,1009.59
2017-01-29T08:54:56.254Z,1009.61
2017-01-29T08:56:07.014Z,1009.6
2017-01-29T08:57:17.755Z,1009.64
2017-01-29T08:58:28.116Z,1009.66
2017-01-29T08:59:38.070Z,1009.65
2017-01-29T09:00:48.858Z,1009.69
2017-01-29T09:01:59.626Z,1009.7
2017-01-29T09:03:09.591Z,1009.67
2017-01-29T09:04:19.146Z,1009.73
2017-01-29T09:05:29.501Z,1009.68
2017-01-29T09:06:39.464Z,1009.73
2017-01-29T09:07:50.210Z,1009.72
2017-01-29T09:09:00.947Z,1009.71
2017-01-29T09:10:11.295Z,1009.69
2017-01-29T09:11:21.680Z,1009.71
2017-01-29T09:12:32.416Z,1009.71
2017-01-29T09:13:43.158Z,1009.66
2017-01-29T09:14:53.922Z,1009.73
2017-01-29T09:16:04.286Z,1009.69
2017-01-29T09:17:15.039Z,1009.68
2017-01-29T09:18:25.399Z,1009.67
2017-01-29T09:19:35.750Z,1009.72
2017-01-29T09:20:45.695Z,1009.74
2017-01-29T09:21:56.442Z,1009.7
2017-01-29T09:23:07.238Z,1009.77
2017-01-29T09:24:17.209Z,1009.75
2017-01-29T09:25:27.959Z,1009.77
2017-01-29T09:26:37.923Z,1009.75
2017-01-29T09:27:48.295Z,1009.74
2017-01-29T09:28:59.076Z,1009.73
2017-01-29T09:30:09.451Z,1009.69
2017-01-29T09:31:19.806Z,1009.68
2017-01-29T09:32:30.172Z,1009.7
2017-01-29T09:33:40.535Z,1009.65
2017-01-29T09:34:50.912Z,1009.69
2017-01-29T09:36:01.669Z,1009.68
2017-01-29T09:37:11.619Z,1009.7
2017-01-29T09:38:22.369Z,1009.72
2017-01-29T09:39:32.727Z,1009.69
2017-01-29T09:40:43.516Z,1009.64
2017-01-29T09:41:53.858Z,1009.63
2017-01-29T09:43:04.220Z,1009.67
2017-01-29T09:44:14.586Z,1009.65
2017-01-29T09:45:25.339Z,1009.64
2017-01-29T09:46:35.722Z,1009.68
2017-01-29T09:47:46.075Z,1009.71
2017-01-29T09:48:56.417Z,1009.69
2017-01-29T09:50:06.789Z,1009.73
2017-01-29T09:51:17.566Z,1009.71
2017-01-29T09:52:28.330Z,1009.69
2017-01-29T09:53:39.074Z,1009.7
2017-01-29T09:54:49.831Z,1009.7
2017-01-29T09:56:00.574Z,1009.68
2017-01-29T09:57:11.339Z,1009.67
2017-01-29T09:58:21.680Z,1009.66
2017-01-29T09:59:32.055Z,1009.64
2017-01-29T10:00:42.016Z,1009.64
2017-01-29T10:01:52.380Z,1009.64
2017-01-29T10:03:02.735Z,1009.64
2017-01-29T10:04:13.102Z,1009.63
2017-01-29T10:05:23.843Z,1009.61
2017-01-29T10:06:33.821Z,1009.58
2017-01-29T10:07:43.777Z,1009.61
2017-01-29T10:08:54.123Z,1009.58
2017-01-29T10:10:04.102Z,1009.57
2017-01-29T10:11:14.861Z,1009.56
2017-01-29T10:12:25.632Z,1009.57
2017-01-29T10:13:35.996Z,1009.54
2017-01-29T10:14:46.736Z,1009.53
2017-01-29T10:15:57.100Z,1009.55
2017-01-29T10:17:07.840Z,1009.55
2017-01-29T10:18:18.595Z,1009.53
2017-01-29T10:19:28.979Z,1009.5
2017-01-29T10:20:39.744Z,1009.49
2017-01-29T10:21:50.108Z,1009.52
2017-01-29T10:23:00.074Z,1009.5
2017-01-29T10:24:10.829Z,1009.47
2017-01-29T10:25:21.580Z,1009.48
2017-01-29T10:26:31.933Z,1009.51
2017-01-29T10:27:42.707Z,1009.47
2017-01-29T10:28:53.452Z,1009.45
2017-01-29T10:30:03.810Z,1009.46
2017-01-29T10:31:13.800Z,1009.47
2017-01-29T10:32:23.765Z,1009.48
2017-01-29T10:33:34.112Z,1009.46
2017-01-29T10:34:44.465Z,1009.46
2017-01-29T10:35:55.243Z,1009.46
2017-01-29T10:37:05.975Z,1009.47
2017-01-29T10:38:16.776Z,1009.46
2017-01-29T10:39:27.536Z,1009.46
2017-01-29T10:40:38.288Z,1009.43
2017-01-29T10:41:49.069Z,1009.41
2017-01-29T10:42:59.450Z,1009.46
2017-01-29T10:44:09.824Z,1009.46
2017-01-29T10:45:20.170Z,1009.39
2017-01-29T10:46:30.540Z,1009.41
2017-01-29T10:47:40.498Z,1009.44
2017-01-29T10:48:51.268Z,1009.44
2017-01-29T10:50:02.016Z,1009.43
2017-01-29T10:51:11.983Z,1009.47
2017-01-29T10:52:22.354Z,1009.43
2017-01-29T10:53:32.738Z,1009.44
2017-01-29T10:54:43.493Z,1009.42
2017-01-29T10:55:54.270Z,1009.4
2017-01-29T10:57:04.642Z,1009.41
2017-01-29T10:58:15.010Z,1009.41
2017-01-29T10:59:25.773Z,1009.38
2017-01-29T11:00:36.548Z,1009.39
2017-01-29T11:01:46.917Z,1009.38
2017-01-29T11:02:57.281Z,1009.34
2017-01-29T11:04:08.055Z,1009.41
2017-01-29T11:05:18.418Z,1009.35
2017-01-29T11:06:28.773Z,1009.37
2017-01-29T11:07:39.145Z,1009.33
2017-01-29T11:08:49.490Z,1009.32
2017-01-29T11:09:59.903Z,1009.35
2017-01-29T11:11:10.284Z,1009.34
2017-01-29T11:12:21.052Z,1009.34
2017-01-29T11:13:31.421Z,1009.34
2017-01-29T11:14:42.171Z,1009.32
2017-01-29T11:15:52.944Z,1009.31
2017-01-29T11:17:02.975Z,1009.28
2017-01-29T11:18:13.722Z,1009.28
2017-01-29T11:19:24.137Z,1009.25
2017-01-29T11:20:34.515Z,1009.24
2017-01-29T11:21:45.268Z,1009.22
2017-01-29T11:22:55.703Z,1009.23
2017-01-29T11:24:05.676Z,1009.19
2017-01-29T11:25:16.421Z,1009.21
2017-01-29T11:26:27.162Z,1009.18
2017-01-29T11:27:37.138Z,1009.2
2017-01-29T11:28:47.525Z,1009.19
2017-01-29T11:29:57.884Z,1009.18
2017-01-29T11:31:08.276Z,1009.22
2017-01-29T11:32:19.023Z,1009.2
2017-01-29T11:33:29.779Z,1009.16
2017-01-29T11:34:40.144Z,1009.19
2017-01-29T11:35:50.508Z,1009.19
2017-01-29T11:37:01.267Z,1009.18
2017-01-29T11:38:12.038Z,1009.17
2017-01-29T11:39:22.803Z,1009.18
2017-01-29T11:40:33.161Z,1009.15
2017-01-29T11:41:43.912Z,1009.19
2017-01-29T11:42:54.654Z,1009.18
2017-01-29T11:44:05.029Z,1009.18
2017-01-29T11:45:15.389Z,1009.15
2017-01-29T11:46:26.183Z,1009.14
2017-01-29T11:47:36.553Z,1009.09
2017-01-29T11:48:47.315Z,1009.07
2017-01-29T11:49:57.693Z,1009.1
2017-01-29T11:51:07.666Z,1009.09
2017-01-29T11:52:17.655Z,1009.04
2017-01-29T11:53:27.598Z,1009.03
2017-01-29T11:54:38.353Z,1009.06
2017-01-29T11:55:49.124Z,1009.07
2017-01-29T11:56:59.482Z,1009.06
2017-01-29T11:58:09.849Z,1009.03
2017-01-29T11:59:20.602Z,1009.09
2017-01-29T12:00:30.952Z,1009.05
2017-01-29T12:01:41.744Z,1009.08
2017-01-29T12:02:51.707Z,1009.03
2017-01-29T12:04:02.070Z,1009.05
2017-01-29T12:05:12.449Z,1008.99
2017-01-29T12:06:22.825Z,1009
2017-01-29T12:07:32.792Z,1009
2017-01-29T12:08:43.565Z,1009
2017-01-29T12:09:54.318Z,1008.95
2017-01-29T12:11:04.689Z,1008.99
2017-01-29T12:12:15.041Z,1008.96
2017-01-29T12:13:25.384Z,1008.96
2017-01-29T12:14:35.725Z,1008.91
2017-01-29T12:15:46.088Z,1008.92
2017-01-29T12:16:56.451Z,1008.92
2017-01-29T12:18:07.190Z,1008.9
2017-01-29T12:19:17.962Z,1008.89
2017-01-29T12:20:27.920Z,1008.86
2017-01-29T12:21:38.275Z,1008.88
2017-01-29T12:22:48.666Z,1008.86
2017-01-29T12:23:59.026Z,1008.87
2017-01-29T12:25:09.789Z,1008.88
2017-01-29T12:26:20.532Z,1008.87
2017-01-29T12:27:30.489Z,1008.86
2017-01-29T12:28:41.247Z,1008.91
2017-01-29T12:29:51.997Z,1008.87
2017-01-29T12:31:01.986Z,1008.88
2017-01-29T12:32:12.344Z,1008.89
2017-01-29T12:33:22.720Z,1008.86
2017-01-29T12:34:32.683Z,1008.87
2017-01-29T12:35:43.528Z,1008.86
2017-01-29T12:36:53.882Z,1008.88
2017-01-29T12:38:04.228Z,1008.84
2017-01-29T12:39:14.593Z,1008.89
2017-01-29T12:40:24.949Z,1008.85
2017-01-29T12:41:35.705Z,1008.88
2017-01-29T12:42:46.472Z,1008.85
2017-01-29T12:43:56.825Z,1008.83
2017-01-29T12:45:06.802Z,1008.8
2017-01-29T12:46:17.555Z,1008.84
2017-01-29T12:47:27.901Z,1008.87
2017-01-29T12:48:37.863Z,1008.82
2017-01-29T12:49:48.627Z,1008.83
2017-01-29T12:50:59.013Z,1008.87
2017-01-29T12:52:09.020Z,1008.87
2017-01-29T12:53:19.424Z,1008.88
2017-01-29T12:54:29.800Z,1008.84
2017-01-29T12:55:40.571Z,1008.87
2017-01-29T12:56:51.319Z,1008.87
2017-01-29T12:58:01.681Z,1008.86
2017-01-29T12:59:12.548Z,1008.81
2017-01-29T13:00:23.333Z,1008.82
2017-01-29T13:01:33.690Z,1008.8
2017-01-29T13:02:44.479Z,1008.84
2017-01-29T13:03:54.840Z,1008.82
2017-01-29T13:05:05.605Z,1008.83
2017-01-29T13:06:15.949Z,1008.84
2017-01-29T13:07:26.315Z,1008.82
2017-01-29T13:08:36.677Z,1008.85
2017-01-29T13:09:47.022Z,1008.82
2017-01-29T13:10:57.763Z,1008.84
2017-01-29T13:12:08.137Z,1008.86
2017-01-29T13:13:18.487Z,1008.81
2017-01-29T13:14:28.853Z,1008.82
2017-01-29T13:15:38.835Z,1008.86
2017-01-29T13:16:49.593Z,1008.85
2017-01-29T13:17:59.606Z,1008.85
2017-01-29T13:19:09.983Z,1008.88
2017-01-29T13:20:20.778Z,1008.88
2017-01-29T13:21:31.520Z,1008.89
2017-01-29T13:22:42.292Z,1008.88
2017-01-29T13:23:53.346Z,1008.92
2017-01-29T13:25:03.690Z,1008.9
2017-01-29T13:26:14.054Z,1008.94
2017-01-29T13:27:24.836Z,1008.92
2017-01-29T13:28:35.196Z,1008.89
2017-01-29T13:29:45.561Z,1008.91
2017-01-29T13:30:55.928Z,1008.88
2017-01-29T13:32:06.702Z,1008.87
2017-01-29T13:33:17.465Z,1008.91
2017-01-29T13:34:28.232Z,1008.89
2017-01-29T13:35:38.583Z,1008.87
2017-01-29T13:36:49.346Z,1008.88
2017-01-29T13:37:59.723Z,1008.88
2017-01-29T13:39:10.481Z,1008.83
2017-01-29T13:40:20.456Z,1008.86
2017-01-29T13:41:30.429Z,1008.87
2017-01-29T13:42:40.419Z,1008.87
2017-01-29T13:43:50.784Z,1008.9
2017-01-29T13:45:01.548Z,1008.89
2017-01-29T13:46:11.915Z,1008.89
2017-01-29T13:47:22.266Z,1008.92
2017-01-29T13:48:33.018Z,1008.91
2017-01-29T13:49:42.984Z,1008.94
2017-01-29T13:50:53.347Z,1008.91
2017-01-29T13:52:04.137Z,1008.94
2017-01-29T13:53:14.104Z,1008.93
2017-01-29T13:54:23.679Z,1008.94
2017-01-29T13:55:34.053Z,1008.9
2017-01-29T13:56:44.813Z,1008.9
2017-01-29T13:57:55.580Z,1008.91
2017-01-29T13:59:06.363Z,1008.94
2017-01-29T14:00:17.139Z,1008.95
2017-01-29T14:01:27.901Z,1008.92
2017-01-29T14:02:38.660Z,1008.93
2017-01-29T14:03:49.020Z,1008.92
2017-01-29T14:04:59.376Z,1008.9
2017-01-29T14:06:09.724Z,1008.92
2017-01-29T14:07:20.486Z,1008.96
2017-01-29T14:08:30.867Z,1008.92
2017-01-29T14:09:41.625Z,1008.88
2017-01-29T14:10:52.002Z,1008.89
2017-01-29T14:12:02.408Z,1008.9
2017-01-29T14:13:12.795Z,1008.85
2017-01-29T14:14:22.765Z,1008.82
2017-01-29T14:15:33.522Z,1008.83
2017-01-29T14:16:44.279Z,1008.83
2017-01-29T14:17:55.071Z,1008.87
2017-01-29T14:19:05.823Z,1008.84
2017-01-29T14:20:16.639Z,1008.85
2017-01-29T14:21:26.627Z,1008.83
2017-01-29T14:22:37.006Z,1008.89
2017-01-29T14:23:46.985Z,1008.9
2017-01-29T14:24:57.351Z,1008.83
2017-01-29T14:26:08.129Z,1008.85
2017-01-29T14:27:17.717Z,1008.83
2017-01-29T14:28:28.504Z,1008.78
2017-01-29T14:29:38.458Z,1008.82
2017-01-29T14:30:49.235Z,1008.8
2017-01-29T14:31:59.988Z,1008.84
2017-01-29T14:33:09.961Z,1008.84
2017-01-29T14:34:20.713Z,1008.85
2017-01-29T14:35:31.482Z,1008.86
2017-01-29T14:36:42.229Z,1008.87
2017-01-29T14:37:52.986Z,1008.88
2017-01-29T14:39:02.959Z,1008.89
2017-01-29T14:40:13.347Z,1008.88
2017-01-29T14:41:23.717Z,1008.88
2017-01-29T14:42:34.462Z,1008.9
2017-01-29T14:43:44.825Z,1008.85
2017-01-29T14:44:55.582Z,1008.81
2017-01-29T14:46:06.347Z,1008.81